createdAt,value
2023-03-12T00:01:21.443Z,-0.01
2023-03-12T00:03:49.066Z,-0.01
2023-03-12T00:06:16.825Z,-0.02
2023-03-12T00:08:43.300Z,-0.03
2023-03-12T00:11:12.656Z,-0.02
2023-03-12T00:13:40.241Z,-0.02
2023-03-12T00:16:15.252Z,-0.02
2023-03-12T00:18:43.327Z,-0.04
2023-03-12T00:21:10.158Z,-0.04
2023-03-12T00:23:37.709Z,-0.05
2023-03-12T00:26:07.194Z,-0.06
2023-03-12T00:28:35.000Z,-0.06
2023-03-12T00:31:03.176Z,-0.06
2023-03-12T00:33:30.744Z,-0.07
2023-03-12T00:36:00.258Z,-0.04
2023-03-12T00:38:26.775Z,-0.05
2023-03-12T00:40:53.439Z,-0.05
2023-03-12T00:43:20.359Z,-0.07
2023-03-12T00:45:46.892Z,-0.08
2023-03-12T00:48:13.375Z,-0.09
2023-03-12T00:50:39.973Z,-0.06
2023-03-12T00:53:06.562Z,-0.07
2023-03-12T00:55:33.189Z,-0.06
2023-03-12T00:57:59.749Z,-0.06
2023-03-12T01:00:26.386Z,-0.08
2023-03-12T01:02:53.671Z,-0.10
2023-03-12T01:05:20.323Z,-0.11
2023-03-12T01:07:47.430Z,-0.14
2023-03-12T01:10:17.763Z,-0.16
2023-03-12T01:12:45.696Z,-0.16
2023-03-12T01:15:15.538Z,-0.17
2023-03-12T01:17:42.189Z,-0.17
2023-03-12T01:20:10.077Z,-0.15
2023-03-12T01:22:37.527Z,-0.14
2023-03-12T01:25:04.428Z,-0.15
2023-03-12T01:27:31.347Z,-0.15
2023-03-12T01:29:57.832Z,-0.15
2023-03-12T01:32:25.380Z,-0.16
2023-03-12T01:34:51.995Z,-0.15
2023-03-12T01:37:18.563Z,-0.17
2023-03-12T01:39:45.075Z,-0.17
2023-03-12T01:42:11.585Z,-0.15
2023-03-12T01:44:59.157Z,-0.13
2023-03-12T01:47:27.422Z,-0.12
2023-03-12T01:49:55.968Z,-0.12
2023-03-12T01:52:27.052Z,-0.12
2023-03-12T01:54:57.784Z,-0.15
2023-03-12T01:57:34.409Z,-0.16
2023-03-12T02:00:16.049Z,-0.18
2023-03-12T02:02:44.876Z,-0.21
2023-03-12T02:05:24.869Z,-0.20
2023-03-12T02:07:51.398Z,-0.19
2023-03-12T02:10:17.973Z,-0.21
2023-03-12T02:12:44.694Z,-0.23
2023-03-12T02:15:11.763Z,-0.25
2023-03-12T02:17:40.374Z,-0.27
2023-03-12T02:20:18.297Z,-0.28
2023-03-12T02:22:54.579Z,-0.30
2023-03-12T02:25:37.230Z,-0.34
2023-03-12T02:28:08.835Z,-0.35
2023-03-12T02:30:37.119Z,-0.36
2023-03-12T02:33:07.052Z,-0.38
2023-03-12T02:35:34.192Z,-0.39
2023-03-12T02:38:00.856Z,-0.42
2023-03-12T02:40:46.154Z,-0.44
2023-03-12T02:43:21.691Z,-0.47
2023-03-12T02:45:48.539Z,-0.49
2023-03-12T02:48:15.274Z,-0.52
2023-03-12T02:50:42.661Z,-0.53
2023-03-12T02:53:09.104Z,-0.56
2023-03-12T02:55:35.649Z,-0.56
2023-03-12T02:58:02.346Z,-0.57
2023-03-12T03:00:32.214Z,-0.59
2023-03-12T03:03:00.273Z,-0.59
2023-03-12T03:05:27.154Z,-0.60
2023-03-12T03:07:53.692Z,-0.61
2023-03-12T03:10:20.225Z,-0.61
2023-03-12T03:12:46.842Z,-0.63
2023-03-12T03:15:13.704Z,-0.63
2023-03-12T03:17:40.383Z,-0.65
2023-03-12T03:20:11.055Z,-0.65
2023-03-12T03:22:39.169Z,-0.66
2023-03-12T03:25:07.730Z,-0.67
2023-03-12T03:27:34.259Z,-0.69
2023-03-12T03:30:00.891Z,-0.69
2023-03-12T03:32:27.606Z,-0.69
2023-03-12T03:34:54.109Z,-0.69
2023-03-12T03:37:20.981Z,-0.71
2023-03-12T03:39:47.781Z,-0.69
2023-03-12T03:42:14.387Z,-0.71
2023-03-12T03:44:42.113Z,-0.70
2023-03-12T03:47:08.613Z,-0.71
2023-03-12T03:49:35.106Z,-0.71
2023-03-12T03:52:01.747Z,-0.73
2023-03-12T03:54:33.947Z,-0.72
2023-03-12T03:57:00.802Z,-0.72
2023-03-12T03:59:27.686Z,-0.73
2023-03-12T04:01:54.428Z,-0.73
2023-03-12T04:04:21.077Z,-0.71
2023-03-12T04:06:52.014Z,-0.68
2023-03-12T04:09:18.702Z,-0.66
2023-03-12T04:11:45.499Z,-0.65
2023-03-12T04:14:13.232Z,-0.63
2023-03-12T04:16:43.403Z,-0.64
2023-03-12T04:19:10.149Z,-0.63
2023-03-12T04:21:39.467Z,-0.63
2023-03-12T04:24:07.938Z,-0.61
2023-03-12T04:26:35.134Z,-0.61
2023-03-12T04:29:03.352Z,-0.59
2023-03-12T04:31:30.140Z,-0.58
2023-03-12T04:33:57.109Z,-0.57
2023-03-12T04:36:24.849Z,-0.56
2023-03-12T04:38:52.739Z,-0.56
2023-03-12T04:41:23.825Z,-0.56
2023-03-12T04:43:59.174Z,-0.58
2023-03-12T04:46:26.597Z,-0.60
2023-03-12T04:48:53.109Z,-0.61
2023-03-12T04:51:19.571Z,-0.63
2023-03-12T04:53:46.210Z,-0.66
2023-03-12T04:56:14.831Z,-0.69
2023-03-12T04:58:42.591Z,-0.73
2023-03-12T05:01:21.846Z,-0.76
2023-03-12T05:03:48.392Z,-0.80
2023-03-12T05:06:15.137Z,-0.81
2023-03-12T05:08:41.608Z,-0.84
2023-03-12T05:11:08.143Z,-0.85
2023-03-12T05:13:34.831Z,-0.86
2023-03-12T05:16:01.465Z,-0.86
2023-03-12T05:18:28.246Z,-0.84
2023-03-12T05:21:07.510Z,-0.84
2023-03-12T05:23:35.640Z,-0.82
2023-03-12T05:26:02.523Z,-0.77
2023-03-12T05:28:29.489Z,-0.73
2023-03-12T05:31:00.365Z,-0.67
2023-03-12T05:33:28.587Z,-0.63
2023-03-12T05:35:56.530Z,-0.60
2023-03-12T05:38:23.434Z,-0.59
2023-03-12T05:40:57.159Z,-0.55
2023-03-12T05:43:23.811Z,-0.52
2023-03-12T05:45:51.579Z,-0.48
2023-03-12T05:48:21.447Z,-0.46
2023-03-12T05:50:49.225Z,-0.40
2023-03-12T05:53:15.814Z,-0.34
2023-03-12T05:55:42.694Z,-0.28
2023-03-12T05:58:10.082Z,-0.20
2023-03-12T06:00:38.905Z,-0.11
2023-03-12T06:03:07.893Z,0.01
2023-03-12T06:05:36.161Z,0.10
2023-03-12T06:08:04.144Z,0.19
2023-03-12T06:10:31.072Z,0.27
2023-03-12T06:12:58.271Z,0.35
2023-03-12T06:15:24.779Z,0.43
2023-03-12T06:17:51.396Z,0.52
2023-03-12T06:20:18.237Z,0.61
2023-03-12T06:22:44.728Z,0.67
2023-03-12T06:25:11.334Z,0.75
2023-03-12T06:27:38.668Z,0.84
2023-03-12T06:30:05.789Z,0.95
2023-03-12T06:32:32.435Z,1.03
2023-03-12T06:35:00.791Z,1.11
2023-03-12T06:37:28.166Z,1.18
2023-03-12T06:39:54.836Z,1.25
2023-03-12T06:42:22.556Z,1.31
2023-03-12T06:44:50.288Z,1.37
2023-03-12T06:47:17.764Z,1.48
2023-03-12T06:49:44.667Z,1.62
2023-03-12T06:52:11.215Z,1.74
2023-03-12T06:54:38.264Z,1.85
2023-03-12T06:57:04.957Z,1.94
2023-03-12T06:59:31.411Z,2.02
2023-03-12T07:01:58.429Z,2.10
2023-03-12T07:04:25.097Z,2.16
2023-03-12T07:06:51.585Z,2.21
2023-03-12T07:09:19.096Z,2.28
2023-03-12T07:11:46.147Z,2.34
2023-03-12T07:14:12.649Z,2.42
2023-03-12T07:16:39.271Z,2.49
2023-03-12T07:19:06.188Z,2.58
2023-03-12T07:21:32.765Z,2.65
2023-03-12T07:24:00.796Z,2.73
2023-03-12T07:26:27.489Z,2.79
2023-03-12T07:28:54.037Z,2.87
2023-03-12T07:31:20.702Z,2.99
2023-03-12T07:33:47.428Z,3.12
2023-03-12T07:36:14.246Z,3.26
2023-03-12T07:38:40.939Z,3.36
2023-03-12T07:41:07.493Z,3.51
2023-03-12T07:43:34.005Z,3.66
2023-03-12T07:46:00.667Z,3.72
2023-03-12T07:48:27.287Z,3.77
2023-03-12T07:50:53.812Z,3.80
2023-03-12T07:53:20.336Z,3.83
2023-03-12T07:55:48.297Z,3.87
2023-03-12T07:58:16.124Z,3.94
2023-03-12T08:00:42.872Z,4.03
2023-03-12T08:03:09.758Z,4.08
2023-03-12T08:05:36.552Z,4.12
2023-03-12T08:08:04.049Z,4.15
2023-03-12T08:10:30.981Z,4.32
2023-03-12T08:12:57.824Z,4.49
2023-03-12T08:15:24.565Z,4.73
2023-03-12T08:17:51.123Z,5.11
2023-03-12T08:20:17.737Z,5.32
2023-03-12T08:22:44.362Z,5.46
2023-03-12T08:25:11.518Z,5.57
2023-03-12T08:27:38.454Z,5.62
2023-03-12T08:30:06.449Z,5.71
2023-03-12T08:32:33.188Z,5.80
2023-03-12T08:34:59.934Z,5.86
2023-03-12T08:37:26.415Z,5.93
2023-03-12T08:39:52.851Z,5.96
2023-03-12T08:42:19.365Z,5.92
2023-03-12T08:44:45.895Z,5.93
2023-03-12T08:47:12.371Z,5.98
2023-03-12T08:49:38.819Z,6.08
2023-03-12T08:52:05.363Z,6.19
2023-03-12T08:54:31.903Z,6.25
2023-03-12T08:56:58.412Z,6.29
2023-03-12T08:59:25.117Z,6.38
2023-03-12T09:01:51.663Z,6.52
2023-03-12T09:04:18.760Z,6.62
2023-03-12T09:06:45.268Z,6.67
2023-03-12T09:09:11.797Z,6.65
2023-03-12T09:11:39.839Z,6.63
2023-03-12T09:16:53.706Z,6.79
2023-03-12T09:19:21.048Z,6.89
2023-03-12T09:21:50.098Z,7.00
2023-03-12T09:24:16.549Z,7.14
2023-03-12T09:26:43.054Z,7.24
2023-03-12T09:29:10.015Z,7.38
2023-03-12T09:31:36.648Z,7.57
2023-03-12T09:34:04.699Z,7.66
2023-03-12T09:36:31.784Z,7.70
2023-03-12T09:39:02.402Z,7.75
2023-03-12T09:41:32.437Z,7.78
2023-03-12T09:44:07.798Z,7.84
2023-03-12T09:46:43.204Z,7.76
2023-03-12T09:49:42.758Z,7.78
2023-03-12T09:52:24.541Z,7.85
2023-03-12T09:55:21.555Z,7.96
2023-03-12T09:57:51.225Z,8.00
2023-03-12T10:00:21.754Z,8.04
2023-03-12T10:03:12.644Z,8.16
2023-03-12T10:06:04.083Z,8.21
2023-03-12T10:08:45.510Z,8.37
2023-03-12T10:11:36.664Z,8.44
2023-03-12T10:14:26.789Z,8.45
2023-03-12T10:17:15.450Z,8.47
2023-03-12T10:19:56.950Z,8.47
2023-03-12T10:22:51.771Z,8.50
2023-03-12T10:25:31.993Z,8.47
2023-03-12T10:28:21.069Z,8.54
2023-03-12T10:30:56.158Z,8.72
2023-03-12T10:33:40.041Z,8.89
2023-03-12T10:36:15.140Z,8.84
2023-03-12T10:38:41.619Z,8.78
2023-03-12T10:41:23.248Z,8.75
2023-03-12T10:43:50.028Z,8.72
2023-03-12T10:46:38.360Z,8.68
2023-03-12T10:49:23.118Z,8.54
2023-03-12T10:52:23.145Z,8.43
2023-03-12T10:54:52.793Z,8.37
2023-03-12T10:57:21.067Z,8.38
2023-03-12T10:59:48.718Z,8.44
2023-03-12T11:02:44.394Z,8.53
2023-03-12T11:05:26.762Z,8.72
2023-03-12T11:07:53.960Z,8.90
2023-03-12T11:10:26.378Z,9.05
2023-03-12T11:12:59.525Z,9.24
2023-03-12T11:15:29.034Z,9.37
2023-03-12T11:18:25.191Z,9.48
2023-03-12T11:21:16.099Z,9.45
2023-03-12T11:24:04.712Z,9.34
2023-03-12T11:26:39.741Z,9.16
2023-03-12T11:29:27.343Z,8.96
2023-03-12T11:32:03.198Z,8.85
2023-03-12T11:34:33.829Z,8.75
2023-03-12T11:37:12.744Z,8.67
2023-03-12T11:39:46.953Z,8.60
2023-03-12T11:42:25.564Z,8.55
2023-03-12T11:45:10.037Z,8.48
2023-03-12T11:47:59.370Z,8.39
2023-03-12T11:50:47.103Z,8.34
2023-03-12T11:53:37.081Z,8.30
2023-03-12T11:56:27.510Z,8.34
2023-03-12T11:59:05.423Z,8.35
2023-03-12T12:02:04.595Z,8.35
2023-03-12T12:04:44.572Z,8.29
2023-03-12T12:07:38.415Z,8.19
2023-03-12T12:10:24.046Z,8.12
2023-03-12T12:13:01.749Z,8.10
2023-03-12T12:15:38.491Z,8.11
2023-03-12T12:18:35.858Z,8.08
2023-03-12T12:21:30.146Z,7.98
2023-03-12T12:24:35.309Z,7.87
2023-03-12T12:27:23.975Z,7.77
2023-03-12T12:30:27.422Z,7.76
2023-03-12T12:33:22.669Z,7.67
2023-03-12T12:35:50.116Z,7.57
2023-03-12T12:38:30.700Z,7.53
2023-03-12T12:41:20.718Z,7.58
2023-03-12T12:43:50.206Z,7.63
2023-03-12T12:46:20.262Z,7.65
2023-03-12T12:48:58.565Z,7.65
2023-03-12T12:51:29.961Z,7.62
2023-03-12T12:54:00.924Z,7.54
2023-03-12T12:56:43.610Z,7.51
2023-03-12T12:59:34.332Z,7.50
2023-03-12T13:02:04.885Z,7.52
2023-03-12T13:04:39.373Z,7.53
2023-03-12T13:07:11.929Z,7.46
2023-03-12T13:09:51.130Z,7.44
2023-03-12T13:12:42.700Z,7.44
2023-03-12T13:15:30.755Z,7.46
2023-03-12T13:18:22.417Z,7.48
2023-03-12T13:20:51.927Z,7.43
2023-03-12T13:23:47.729Z,7.36
2023-03-12T13:26:49.951Z,7.36
2023-03-12T13:29:19.092Z,7.38
2023-03-12T13:31:45.565Z,7.32
2023-03-12T13:34:17.824Z,7.29
2023-03-12T13:36:46.091Z,7.26
2023-03-12T13:39:15.298Z,7.21
2023-03-12T13:41:55.298Z,7.11
2023-03-12T13:44:27.633Z,7.03
2023-03-12T13:47:27.598Z,6.93
2023-03-12T13:49:58.606Z,6.93
2023-03-12T13:52:28.853Z,6.94
2023-03-12T13:55:15.873Z,6.98
2023-03-12T13:57:46.866Z,7.02
2023-03-12T14:00:26.273Z,7.06
2023-03-12T14:03:16.229Z,7.09
2023-03-12T14:05:52.424Z,7.16
2023-03-12T14:08:50.140Z,7.17
2023-03-12T14:11:57.769Z,7.14
2023-03-12T14:14:44.346Z,7.10
2023-03-12T14:17:24.191Z,7.07
2023-03-12T14:19:57.254Z,7.05
2023-03-12T14:22:25.435Z,7.02
2023-03-12T14:24:58.927Z,6.97
2023-03-12T14:27:29.498Z,6.89
2023-03-12T14:30:25.639Z,6.79
2023-03-12T14:32:56.822Z,6.77
2023-03-12T14:35:28.789Z,6.73
2023-03-12T14:38:01.177Z,6.73
2023-03-12T14:40:38.282Z,6.70
2023-03-12T14:43:27.071Z,6.65
2023-03-12T14:46:02.098Z,6.61
2023-03-12T14:48:34.156Z,6.63
2023-03-12T14:51:03.122Z,6.69
2023-03-12T14:53:33.248Z,6.76
2023-03-12T14:56:24.137Z,6.78
2023-03-12T14:58:52.012Z,6.79
2023-03-12T15:01:22.082Z,6.81
2023-03-12T15:03:59.203Z,6.81
2023-03-12T15:06:40.090Z,6.78
2023-03-12T15:09:07.961Z,6.72
2023-03-12T15:11:37.024Z,6.68
2023-03-12T15:14:08.722Z,6.61
2023-03-12T15:16:36.028Z,6.55
2023-03-12T15:19:04.136Z,6.52
2023-03-12T15:21:35.374Z,6.54
2023-03-12T15:24:32.796Z,6.53
2023-03-12T15:26:52.454Z,6.52
2023-03-12T15:29:27.889Z,6.50
2023-03-12T15:32:00.078Z,6.51
2023-03-12T15:34:34.933Z,6.55
2023-03-12T15:37:22.050Z,6.59
2023-03-12T15:39:50.963Z,6.58
2023-03-12T15:42:20.630Z,6.48
2023-03-12T15:44:56.878Z,6.44
2023-03-12T15:47:33.475Z,6.41
2023-03-12T15:50:06.650Z,6.42
2023-03-12T15:52:35.550Z,6.45
2023-03-12T15:55:14.236Z,6.49
2023-03-12T15:57:46.739Z,6.51
2023-03-12T16:00:41.852Z,6.55
2023-03-12T16:03:20.450Z,6.55
2023-03-12T16:05:50.871Z,6.55
2023-03-12T16:08:27.139Z,6.59
2023-03-12T16:10:53.872Z,6.62
2023-03-12T16:13:27.202Z,6.57
2023-03-12T16:15:54.938Z,6.55
2023-03-12T16:18:24.739Z,6.48
2023-03-12T16:20:52.821Z,6.42
2023-03-12T16:23:20.212Z,6.32
2023-03-12T16:25:51.160Z,6.27
2023-03-12T16:28:19.755Z,6.25
2023-03-12T16:30:46.585Z,6.22
2023-03-12T16:33:16.041Z,6.17
2023-03-12T16:35:42.824Z,6.09
2023-03-12T16:38:09.360Z,6.00
2023-03-12T16:40:38.302Z,5.97
2023-03-12T16:43:11.244Z,5.96
2023-03-12T16:45:41.926Z,5.98
2023-03-12T16:48:14.688Z,5.99
2023-03-12T16:50:41.252Z,6.04
2023-03-12T16:53:07.769Z,6.08
2023-03-12T16:55:45.643Z,6.10
2023-03-12T16:58:15.283Z,6.11
2023-03-12T17:00:42.389Z,6.13
2023-03-12T17:03:18.502Z,6.17
2023-03-12T17:05:45.056Z,6.16
2023-03-12T17:08:11.546Z,6.14
2023-03-12T17:10:38.054Z,6.11
2023-03-12T17:13:04.923Z,6.11
2023-03-12T17:15:33.393Z,6.04
2023-03-12T17:18:03.445Z,6.04
2023-03-12T17:20:36.079Z,6.05
2023-03-12T17:23:04.165Z,6.04
2023-03-12T17:25:33.454Z,5.99
2023-03-12T17:28:00.475Z,5.96
2023-03-12T17:30:30.224Z,5.93
2023-03-12T17:33:09.601Z,5.91
2023-03-12T17:35:36.510Z,5.89
2023-03-12T17:38:06.590Z,5.88
2023-03-12T17:40:33.848Z,5.87
2023-03-12T17:43:00.342Z,5.84
2023-03-12T17:45:27.468Z,5.83
2023-03-12T17:47:53.933Z,5.80
2023-03-12T17:50:20.490Z,5.78
2023-03-12T17:52:47.093Z,5.83
2023-03-12T17:55:13.682Z,5.89
2023-03-12T17:57:40.799Z,5.94
2023-03-12T18:00:12.567Z,5.99
2023-03-12T18:02:40.692Z,6.00
2023-03-12T18:05:08.614Z,5.99
2023-03-12T18:07:35.504Z,5.98
2023-03-12T18:10:02.086Z,5.99
2023-03-12T18:12:28.913Z,6.02
2023-03-12T18:14:55.538Z,6.03
2023-03-12T18:17:22.138Z,6.04
2023-03-12T18:19:48.946Z,6.06
2023-03-12T18:22:15.420Z,6.08
2023-03-12T18:24:42.185Z,6.12
2023-03-12T18:27:08.650Z,6.15
2023-03-12T18:29:36.861Z,6.16
2023-03-12T18:32:04.225Z,6.19
2023-03-12T18:34:30.703Z,6.21
2023-03-12T18:36:57.264Z,6.22
2023-03-12T18:39:23.853Z,6.24
2023-03-12T18:41:50.335Z,6.26
2023-03-12T18:44:17.130Z,6.27
2023-03-12T18:46:43.810Z,6.27
2023-03-12T18:49:12.432Z,6.28
2023-03-12T18:51:39.235Z,6.28
2023-03-12T18:54:05.843Z,6.29
2023-03-12T18:56:32.344Z,6.28
2023-03-12T18:58:58.902Z,6.31
2023-03-12T19:01:26.157Z,6.32
2023-03-12T19:03:52.707Z,6.35
2023-03-12T19:06:19.211Z,6.39
2023-03-12T19:08:45.850Z,6.40
2023-03-12T19:11:15.046Z,6.43
2023-03-12T19:13:42.272Z,6.43
2023-03-12T19:16:11.233Z,6.45
2023-03-12T19:18:38.753Z,6.45
2023-03-12T19:21:07.622Z,6.45
2023-03-12T19:23:34.218Z,6.45
2023-03-12T19:26:01.053Z,6.44
2023-03-12T19:28:27.614Z,6.45
2023-03-12T19:31:00.482Z,6.43
2023-03-12T19:33:28.429Z,6.40
2023-03-12T19:35:55.242Z,6.42
2023-03-12T19:38:21.789Z,6.43
2023-03-12T19:40:49.998Z,6.41
2023-03-12T19:43:17.245Z,6.41
2023-03-12T19:45:44.023Z,6.40
2023-03-12T19:48:10.899Z,6.43
2023-03-12T19:50:37.435Z,6.42
2023-03-12T19:53:04.233Z,6.45
2023-03-12T19:55:30.841Z,6.50
2023-03-12T19:57:57.354Z,6.55
2023-03-12T20:00:23.953Z,6.58
2023-03-12T20:02:50.481Z,6.58
2023-03-12T20:05:19.677Z,6.60
2023-03-12T20:07:47.085Z,6.64
2023-03-12T20:10:13.842Z,6.67
2023-03-12T20:12:40.443Z,6.66
2023-03-12T20:15:07.655Z,6.64
2023-03-12T20:17:34.125Z,6.62
2023-03-12T20:20:01.260Z,6.62
2023-03-12T20:22:27.890Z,6.64
2023-03-12T20:24:54.416Z,6.66
2023-03-12T20:27:21.068Z,6.69
2023-03-12T20:29:49.788Z,6.70
2023-03-12T20:32:17.195Z,6.71
2023-03-12T20:34:46.929Z,6.72
2023-03-12T20:37:13.416Z,6.70
2023-03-12T20:39:40.056Z,6.72
2023-03-12T20:42:06.590Z,6.79
2023-03-12T20:44:33.027Z,6.87
2023-03-12T20:46:59.514Z,6.92
2023-03-12T20:49:26.008Z,6.99
2023-03-12T20:51:52.441Z,7.05
2023-03-12T20:54:19.063Z,7.12
2023-03-12T20:56:45.658Z,7.19
2023-03-12T20:59:12.474Z,7.22
2023-03-12T21:01:39.251Z,7.28
2023-03-12T21:04:05.943Z,7.34
2023-03-12T21:06:32.594Z,7.36
2023-03-12T21:08:59.080Z,7.40
2023-03-12T21:11:28.761Z,7.44
2023-03-12T21:13:55.195Z,7.48
2023-03-12T21:16:22.399Z,7.50
2023-03-12T21:18:49.118Z,7.52
2023-03-12T21:21:15.743Z,7.52
2023-03-12T21:23:42.381Z,7.54
2023-03-12T21:26:09.741Z,7.57
2023-03-12T21:28:36.697Z,7.60
2023-03-12T21:31:12.197Z,7.63
2023-03-12T21:33:39.076Z,7.65
2023-03-12T21:36:11.559Z,7.67
2023-03-12T21:38:39.860Z,7.68
2023-03-12T21:41:15.484Z,7.68
2023-03-12T21:43:43.272Z,7.68
2023-03-12T21:46:15.513Z,7.69
2023-03-12T21:48:44.617Z,7.69
2023-03-12T21:51:13.503Z,7.70
2023-03-12T21:53:39.926Z,7.67
2023-03-12T21:56:07.899Z,7.60
2023-03-12T21:58:36.314Z,7.54
2023-03-12T22:01:11.632Z,7.49
2023-03-12T22:03:39.086Z,7.44
2023-03-12T22:06:06.283Z,7.38
2023-03-12T22:08:33.727Z,7.38
2023-03-12T22:11:00.564Z,7.35
2023-03-12T22:13:27.169Z,7.31
2023-03-12T22:15:55.812Z,7.28
2023-03-12T22:18:23.236Z,7.27
2023-03-12T22:20:51.878Z,7.23
2023-03-12T22:23:18.653Z,7.21
2023-03-12T22:25:45.882Z,7.19
2023-03-12T22:28:12.755Z,7.15
2023-03-12T22:30:39.276Z,7.14
2023-03-12T22:33:05.720Z,7.17
2023-03-12T22:35:32.205Z,7.25
2023-03-12T22:37:58.682Z,7.31
2023-03-12T22:40:25.958Z,7.36
2023-03-12T22:42:53.720Z,7.42
2023-03-12T22:45:20.235Z,7.46
2023-03-12T22:47:46.720Z,7.49
2023-03-12T22:50:13.328Z,7.54
2023-03-12T22:52:40.332Z,7.58
2023-03-12T22:55:07.253Z,7.59
2023-03-12T22:57:34.967Z,7.59
2023-03-12T23:00:01.437Z,7.61
2023-03-12T23:02:27.908Z,7.63
2023-03-12T23:04:54.394Z,7.67
2023-03-12T23:07:20.880Z,7.69
2023-03-12T23:09:47.402Z,7.67
2023-03-12T23:12:13.885Z,7.67
2023-03-12T23:14:40.297Z,7.67
2023-03-12T23:17:09.414Z,7.69
2023-03-12T23:19:36.568Z,7.72
2023-03-12T23:22:03.196Z,7.74
2023-03-12T23:24:31.367Z,7.77
2023-03-12T23:26:57.897Z,7.81
2023-03-12T23:29:24.332Z,7.84
2023-03-12T23:31:50.846Z,7.88
2023-03-12T23:34:17.353Z,7.92
2023-03-12T23:36:46.001Z,7.93
2023-03-12T23:39:13.347Z,7.97
2023-03-12T23:41:39.889Z,8.01
2023-03-12T23:44:06.434Z,8.05
2023-03-12T23:46:33.338Z,8.07
2023-03-12T23:48:59.809Z,8.10
2023-03-12T23:51:28.713Z,8.14
2023-03-12T23:54:00.917Z,8.17
2023-03-12T23:56:34.248Z,8.20
2023-03-12T23:59:00.750Z,8.22
